createdAt,value
2023-02-15T00:01:35.167Z,30.05
2023-02-15T00:04:01.721Z,25.83
2023-02-15T00:06:28.093Z,26.75
2023-02-15T00:08:55.911Z,22.67
2023-02-15T00:11:41.149Z,28.73
2023-02-15T00:14:16.834Z,28.23
2023-02-15T00:16:44.957Z,22.67
2023-02-15T00:19:13.687Z,25.95
2023-02-15T00:21:40.590Z,24.77
2023-02-15T00:24:09.713Z,27.25
2023-02-15T00:26:36.934Z,30.83
2023-02-15T00:29:03.401Z,32.35
2023-02-15T00:31:31.871Z,28.98
2023-02-15T00:34:12.946Z,34.17
2023-02-15T00:36:39.737Z,32.65
2023-02-15T00:39:06.676Z,29.15
2023-02-15T00:41:33.902Z,25.45
2023-02-15T00:44:00.989Z,28.02
2023-02-15T00:46:27.706Z,30.77
2023-02-15T00:48:54.034Z,29.85
2023-02-15T00:51:21.390Z,25.27
2023-02-15T00:53:48.161Z,23.20
2023-02-15T00:56:14.834Z,26.30
2023-02-15T00:58:41.374Z,25.10
2023-02-15T01:01:14.211Z,22.70
2023-02-15T01:03:42.581Z,29.67
2023-02-15T01:06:09.259Z,29.40
2023-02-15T01:08:35.848Z,25.98
2023-02-15T01:11:08.265Z,21.63
2023-02-15T01:13:35.406Z,25.13
2023-02-15T01:16:02.609Z,29.95
2023-02-15T01:18:29.277Z,26.50
2023-02-15T01:20:55.626Z,25.85
2023-02-15T01:23:21.966Z,22.70
2023-02-15T01:25:48.447Z,21.27
2023-02-15T01:28:15.007Z,21.63
2023-02-15T01:30:41.521Z,23.23
2023-02-15T01:33:07.921Z,23.67
2023-02-15T01:35:34.433Z,20.27
2023-02-15T01:38:00.840Z,20.83
2023-02-15T01:40:27.235Z,23.48
2023-02-15T01:42:56.047Z,18.33
2023-02-15T01:45:40.791Z,19.85
2023-02-15T01:48:23.843Z,19.97
2023-02-15T01:50:57.499Z,22.30
2023-02-15T01:53:39.363Z,23.35
2023-02-15T01:56:22.892Z,18.48
2023-02-15T01:58:51.844Z,20.40
2023-02-15T02:01:19.597Z,22.47
2023-02-15T02:03:48.838Z,18.60
2023-02-15T02:06:15.600Z,24.65
2023-02-15T02:08:43.713Z,23.02
2023-02-15T02:11:14.564Z,20.67
2023-02-15T02:13:43.177Z,20.03
2023-02-15T02:16:23.042Z,23.90
2023-02-15T02:19:20.094Z,18.20
2023-02-15T02:22:25.442Z,22.83
2023-02-15T02:25:17.413Z,18.92
2023-02-15T02:28:08.696Z,18.87
2023-02-15T02:30:44.488Z,20.88
2023-02-15T02:33:29.574Z,23.10
2023-02-15T02:36:30.923Z,22.15
2023-02-15T02:39:08.290Z,22.45
2023-02-15T02:41:46.658Z,22.40
2023-02-15T02:44:26.061Z,22.67
2023-02-15T02:46:59.252Z,19.83
2023-02-15T02:49:35.069Z,22.02
2023-02-15T02:52:04.570Z,17.70
2023-02-15T02:54:32.289Z,20.93
2023-02-15T02:57:02.725Z,22.60
2023-02-15T02:59:37.995Z,22.63
2023-02-15T03:02:26.537Z,18.60
2023-02-15T03:05:04.506Z,17.75
2023-02-15T03:07:32.336Z,20.10
2023-02-15T03:10:01.793Z,22.70
2023-02-15T03:12:37.745Z,21.77
2023-02-15T03:15:09.967Z,18.17
2023-02-15T03:17:42.136Z,20.13
2023-02-15T03:20:14.497Z,24.27
2023-02-15T03:22:48.718Z,18.77
2023-02-15T03:25:25.019Z,18.25
2023-02-15T03:27:56.355Z,20.80
2023-02-15T03:30:24.063Z,19.88
2023-02-15T03:32:52.575Z,22.70
2023-02-15T03:35:24.859Z,21.85
2023-02-15T03:38:02.817Z,19.08
2023-02-15T03:40:52.926Z,20.55
2023-02-15T03:43:39.872Z,19.08
2023-02-15T03:46:18.783Z,19.87
2023-02-15T03:48:52.924Z,19.50
2023-02-15T03:51:35.170Z,21.58
2023-02-15T03:54:45.029Z,23.08
2023-02-15T03:57:34.464Z,23.05
2023-02-15T04:00:22.916Z,21.43
2023-02-15T04:03:10.361Z,21.50
2023-02-15T04:05:36.772Z,23.27
2023-02-15T04:08:04.038Z,19.90
2023-02-15T04:10:49.165Z,20.83
2023-02-15T04:13:15.576Z,22.13
2023-02-15T04:16:00.954Z,22.50
2023-02-15T04:18:46.201Z,22.70
2023-02-15T04:21:31.002Z,18.83
2023-02-15T04:24:15.818Z,24.42
2023-02-15T04:26:42.228Z,25.40
2023-02-15T04:29:08.567Z,30.25
2023-02-15T04:31:34.999Z,25.17
2023-02-15T04:34:01.459Z,23.77
2023-02-15T04:36:27.898Z,23.75
2023-02-15T04:38:54.197Z,27.27
2023-02-15T04:41:20.573Z,22.75
2023-02-15T04:43:46.891Z,23.10
2023-02-15T04:46:13.281Z,25.35
2023-02-15T04:48:39.671Z,24.13
2023-02-15T04:51:07.868Z,26.17
2023-02-15T04:53:34.974Z,22.80
2023-02-15T04:56:01.715Z,22.83
2023-02-15T04:58:28.261Z,23.48
2023-02-15T05:00:58.423Z,23.48
2023-02-15T05:03:25.636Z,23.53
2023-02-15T05:05:52.108Z,21.58
2023-02-15T05:08:18.481Z,23.08
2023-02-15T05:10:44.824Z,20.65
2023-02-15T05:13:11.209Z,22.83
2023-02-15T05:15:37.579Z,22.33
2023-02-15T05:18:03.964Z,29.23
2023-02-15T05:20:30.273Z,20.42
2023-02-15T05:22:56.658Z,23.05
2023-02-15T05:25:41.553Z,23.80
2023-02-15T05:28:20.221Z,24.13
2023-02-15T05:30:51.904Z,22.60
2023-02-15T05:33:18.588Z,23.25
2023-02-15T05:35:44.908Z,21.35
2023-02-15T05:38:11.349Z,18.08
2023-02-15T05:40:37.665Z,20.30
2023-02-15T05:43:04.047Z,23.70
2023-02-15T05:45:30.780Z,24.17
2023-02-15T05:47:58.944Z,23.85
2023-02-15T05:50:26.100Z,24.50
2023-02-15T05:52:52.683Z,22.00
2023-02-15T05:55:19.636Z,26.88
2023-02-15T05:57:46.057Z,26.05
2023-02-15T06:00:14.716Z,29.50
2023-02-15T06:02:41.616Z,34.40
2023-02-15T06:05:08.527Z,31.67
2023-02-15T06:07:34.925Z,24.98
2023-02-15T06:10:01.313Z,25.70
2023-02-15T06:12:27.674Z,21.42
2023-02-15T06:14:54.028Z,21.92
2023-02-15T06:17:20.401Z,21.53
2023-02-15T06:19:46.725Z,22.23
2023-02-15T06:22:14.877Z,22.55
2023-02-15T06:24:43.482Z,22.27
2023-02-15T06:27:10.940Z,17.02
2023-02-15T06:29:37.443Z,22.30
2023-02-15T06:32:04.319Z,19.38
2023-02-15T06:34:30.813Z,20.80
2023-02-15T06:36:57.189Z,24.50
2023-02-15T06:39:23.580Z,20.30
2023-02-15T06:41:50.213Z,19.07
2023-02-15T06:44:16.534Z,21.55
2023-02-15T06:46:42.949Z,20.15
2023-02-15T06:49:09.393Z,18.75
2023-02-15T06:51:35.794Z,24.58
2023-02-15T06:54:02.161Z,23.20
2023-02-15T06:56:28.577Z,19.30
2023-02-15T06:58:54.974Z,19.98
2023-02-15T07:01:21.392Z,23.13
2023-02-15T07:03:47.869Z,22.98
2023-02-15T07:06:14.246Z,24.80
2023-02-15T07:08:40.736Z,21.63
2023-02-15T07:11:26.356Z,19.73
2023-02-15T07:13:55.868Z,21.48
2023-02-15T07:16:22.243Z,17.20
2023-02-15T07:18:48.592Z,21.10
2023-02-15T07:21:14.896Z,19.75
2023-02-15T07:23:41.412Z,21.08
2023-02-15T07:26:08.343Z,27.13
2023-02-15T07:28:35.733Z,23.58
2023-02-15T07:31:03.814Z,22.57
2023-02-15T07:33:34.133Z,18.20
2023-02-15T07:36:03.405Z,20.33
2023-02-15T07:38:35.514Z,22.80
2023-02-15T07:41:03.565Z,22.98
2023-02-15T07:43:30.792Z,20.23
2023-02-15T07:46:02.083Z,22.17
2023-02-15T07:48:28.776Z,22.48
2023-02-15T07:50:55.318Z,17.10
2023-02-15T07:53:21.665Z,21.40
2023-02-15T07:55:47.988Z,24.67
2023-02-15T07:58:14.352Z,25.50
2023-02-15T08:00:58.913Z,26.48
2023-02-15T08:03:30.038Z,23.27
2023-02-15T08:05:59.352Z,23.35
2023-02-15T08:08:31.092Z,19.40
2023-02-15T08:11:21.384Z,21.60
2023-02-15T08:13:56.098Z,23.55
2023-02-15T08:16:30.252Z,26.98
2023-02-15T08:18:58.471Z,22.10
2023-02-15T08:21:27.921Z,27.40
2023-02-15T08:23:55.319Z,20.90
2023-02-15T08:26:22.903Z,23.60
2023-02-15T08:28:49.975Z,26.58
2023-02-15T08:31:16.519Z,24.90
2023-02-15T08:33:44.726Z,26.37
2023-02-15T08:36:17.393Z,24.65
2023-02-15T08:38:43.992Z,23.70
2023-02-15T08:41:24.752Z,21.35
2023-02-15T08:43:54.662Z,27.65
2023-02-15T08:46:22.832Z,21.67
2023-02-15T08:48:49.739Z,27.38
2023-02-15T08:51:18.444Z,24.15
2023-02-15T08:53:50.043Z,29.25
2023-02-15T08:56:17.817Z,27.77
2023-02-15T08:58:44.761Z,29.93
2023-02-15T09:01:13.470Z,30.77
2023-02-15T09:03:40.436Z,29.75
2023-02-15T09:06:07.684Z,32.25
2023-02-15T09:08:34.222Z,27.58
2023-02-15T09:11:12.262Z,28.77
2023-02-15T09:13:39.698Z,26.15
2023-02-15T09:16:09.146Z,27.08
2023-02-15T09:18:38.277Z,32.25
2023-02-15T09:21:10.455Z,28.98
2023-02-15T09:23:36.899Z,30.67
2023-02-15T09:26:05.536Z,34.00
2023-02-15T09:28:33.648Z,32.97
2023-02-15T09:31:27.536Z,29.00
2023-02-15T09:33:54.578Z,31.73
2023-02-15T09:36:26.958Z,34.03
2023-02-15T09:38:56.269Z,29.92
2023-02-15T09:41:31.731Z,29.95
2023-02-15T09:44:32.054Z,34.33
2023-02-15T09:47:18.908Z,33.03
2023-02-15T09:49:57.001Z,29.80
2023-02-15T09:52:36.604Z,30.05
2023-02-15T09:55:26.295Z,36.40
2023-02-15T09:58:23.439Z,32.10
2023-02-15T10:01:21.777Z,36.42
2023-02-15T10:04:11.463Z,35.20
2023-02-15T10:06:48.245Z,32.17
2023-02-15T10:09:29.297Z,34.58
2023-02-15T10:12:01.589Z,34.88
2023-02-15T10:14:32.724Z,33.67
2023-02-15T10:17:18.094Z,37.20
2023-02-15T10:19:51.242Z,34.05
2023-02-15T10:22:23.136Z,35.15
2023-02-15T10:25:02.746Z,32.78
2023-02-15T10:27:32.642Z,36.13
2023-02-15T10:30:12.817Z,33.10
2023-02-15T10:33:03.783Z,33.75
2023-02-15T10:36:06.061Z,34.25
2023-02-15T10:39:10.885Z,33.25
2023-02-15T10:41:47.151Z,30.60
2023-02-15T10:44:41.261Z,31.90
2023-02-15T10:47:45.838Z,31.77
2023-02-15T10:50:28.072Z,34.67
2023-02-15T10:53:15.012Z,32.45
2023-02-15T10:56:04.237Z,37.35
2023-02-15T10:58:56.253Z,29.60
2023-02-15T11:01:31.731Z,34.40
2023-02-15T11:04:13.164Z,36.20
2023-02-15T11:06:49.275Z,40.40
2023-02-15T11:09:19.174Z,30.05
2023-02-15T11:11:51.346Z,36.90
2023-02-15T11:14:40.654Z,36.47
2023-02-15T11:17:14.783Z,32.05
2023-02-15T11:19:56.512Z,38.25
2023-02-15T11:22:23.275Z,35.72
2023-02-15T11:24:50.106Z,32.43
2023-02-15T11:27:22.081Z,37.85
2023-02-15T11:30:01.473Z,38.00
2023-02-15T11:32:38.870Z,36.35
2023-02-15T11:35:10.999Z,34.92
2023-02-15T11:37:47.901Z,34.57
2023-02-15T11:40:25.754Z,38.72
2023-02-15T11:43:00.070Z,32.95
2023-02-15T11:45:29.839Z,35.88
2023-02-15T11:47:57.840Z,31.90
2023-02-15T11:50:29.496Z,34.03
2023-02-15T11:53:01.323Z,34.83
2023-02-15T11:55:30.151Z,33.15
2023-02-15T11:58:13.370Z,38.13
2023-02-15T12:00:43.679Z,30.90
2023-02-15T12:03:23.492Z,33.17
2023-02-15T12:05:57.309Z,34.50
2023-02-15T12:08:24.740Z,36.75
2023-02-15T12:11:03.998Z,31.45
2023-02-15T12:13:31.092Z,34.33
2023-02-15T12:16:00.328Z,37.93
2023-02-15T12:18:26.658Z,37.42
2023-02-15T12:20:53.314Z,34.50
2023-02-15T12:23:21.317Z,35.95
2023-02-15T12:25:55.657Z,32.90
2023-02-15T12:28:34.642Z,32.33
2023-02-15T12:31:03.953Z,32.65
2023-02-15T12:33:35.855Z,37.40
2023-02-15T12:36:11.294Z,38.88
2023-02-15T12:38:38.155Z,37.17
2023-02-15T12:41:25.961Z,38.00
2023-02-15T12:44:20.077Z,34.63
2023-02-15T12:47:16.081Z,31.02
2023-02-15T12:49:47.497Z,33.53
2023-02-15T12:52:23.187Z,34.75
2023-02-15T12:54:50.227Z,34.60
2023-02-15T12:57:31.797Z,38.17
2023-02-15T13:00:25.341Z,37.58
2023-02-15T13:02:58.186Z,38.58
2023-02-15T13:05:36.279Z,37.10
2023-02-15T13:08:17.908Z,37.77
2023-02-15T13:11:05.048Z,35.67
2023-02-15T13:13:34.190Z,32.63
2023-02-15T13:16:09.062Z,34.55
2023-02-15T13:18:39.443Z,36.28
2023-02-15T13:21:13.107Z,40.20
2023-02-15T13:23:47.044Z,38.25
2023-02-15T13:26:19.754Z,35.33
2023-02-15T13:28:58.608Z,34.75
2023-02-15T13:31:28.836Z,34.30
2023-02-15T13:34:01.528Z,39.50
2023-02-15T13:36:46.787Z,36.92
2023-02-15T13:39:13.077Z,36.17
2023-02-15T13:42:04.410Z,37.35
2023-02-15T13:44:30.716Z,34.03
2023-02-15T13:47:20.269Z,36.47
2023-02-15T13:50:05.375Z,37.58
2023-02-15T13:52:38.776Z,36.03
2023-02-15T13:55:36.756Z,34.78
2023-02-15T13:58:24.714Z,33.08
2023-02-15T14:00:54.295Z,36.60
2023-02-15T14:03:35.875Z,37.83
2023-02-15T14:06:11.259Z,36.63
2023-02-15T14:09:01.945Z,39.40
2023-02-15T14:11:53.043Z,36.90
2023-02-15T14:14:26.911Z,37.60
2023-02-15T14:17:16.490Z,36.22
2023-02-15T14:19:50.697Z,39.10
2023-02-15T14:22:32.882Z,37.65
2023-02-15T14:25:18.245Z,36.28
2023-02-15T14:28:00.219Z,35.80
2023-02-15T14:30:33.657Z,35.20
2023-02-15T14:33:17.446Z,33.72
2023-02-15T14:35:44.629Z,34.28
2023-02-15T14:38:16.869Z,33.45
2023-02-15T14:41:04.884Z,40.37
2023-02-15T14:43:52.829Z,38.83
2023-02-15T14:46:28.775Z,38.92
2023-02-15T14:49:04.566Z,37.65
2023-02-15T14:51:46.752Z,31.75
2023-02-15T14:54:34.147Z,40.07
2023-02-15T14:57:03.340Z,39.75
2023-02-15T14:59:45.011Z,37.92
2023-02-15T15:02:16.214Z,38.90
2023-02-15T15:04:46.498Z,43.45
2023-02-15T15:07:12.800Z,37.73
2023-02-15T15:09:44.084Z,41.08
2023-02-15T15:12:33.491Z,40.15
2023-02-15T15:14:59.879Z,37.83
2023-02-15T15:17:32.214Z,37.42
2023-02-15T15:19:59.472Z,38.90
2023-02-15T15:22:28.200Z,36.28
2023-02-15T15:24:54.592Z,41.42
2023-02-15T15:27:52.828Z,38.78
2023-02-15T15:30:19.209Z,36.30
2023-02-15T15:33:00.037Z,39.97
2023-02-15T15:35:48.716Z,37.30
2023-02-15T15:38:50.286Z,36.17
2023-02-15T15:41:29.006Z,38.20
2023-02-15T15:44:20.832Z,33.97
2023-02-15T15:46:55.298Z,36.67
2023-02-15T15:49:25.211Z,33.67
2023-02-15T15:51:52.130Z,38.58
2023-02-15T15:54:25.286Z,35.58
2023-02-15T15:56:56.988Z,37.60
2023-02-15T15:59:26.724Z,43.13
2023-02-15T16:01:53.517Z,41.15
2023-02-15T16:04:27.001Z,39.80
2023-02-15T16:06:54.141Z,38.20
2023-02-15T16:09:22.220Z,38.00
2023-02-15T16:11:54.629Z,33.37
2023-02-15T16:14:41.252Z,37.80
2023-02-15T16:17:24.932Z,30.98
2023-02-15T16:19:53.192Z,36.17
2023-02-15T16:22:24.084Z,38.40
2023-02-15T16:25:14.970Z,36.90
2023-02-15T16:27:45.772Z,38.40
2023-02-15T16:30:18.199Z,35.15
2023-02-15T16:32:44.640Z,35.97
2023-02-15T16:35:16.118Z,38.40
2023-02-15T16:37:42.545Z,39.30
2023-02-15T16:40:36.489Z,37.72
2023-02-15T16:43:08.462Z,50.63
2023-02-15T16:45:37.962Z,50.30
2023-02-15T16:48:12.922Z,38.50
2023-02-15T16:50:39.903Z,40.20
2023-02-15T16:53:15.386Z,42.58
2023-02-15T16:55:43.291Z,45.72
2023-02-15T16:58:16.947Z,44.22
2023-02-15T17:00:43.830Z,45.83
2023-02-15T17:03:12.974Z,48.00
2023-02-15T17:05:52.303Z,47.53
2023-02-15T17:08:32.026Z,51.15
2023-02-15T17:11:19.987Z,41.55
2023-02-15T17:14:04.881Z,42.50
2023-02-15T17:16:53.545Z,37.97
2023-02-15T17:19:34.200Z,43.88
2023-02-15T17:22:07.604Z,47.70
2023-02-15T17:24:40.129Z,47.97
2023-02-15T17:27:15.241Z,46.88
2023-02-15T17:29:46.717Z,44.03
2023-02-15T17:32:21.253Z,43.35
2023-02-15T17:34:52.159Z,42.60
2023-02-15T17:37:26.365Z,44.53
2023-02-15T17:39:53.102Z,39.03
2023-02-15T17:42:19.493Z,41.63
2023-02-15T17:44:45.944Z,44.25
2023-02-15T17:47:21.631Z,41.42
2023-02-15T17:49:50.108Z,46.38
2023-02-15T17:52:18.238Z,47.83
2023-02-15T17:55:03.583Z,43.53
2023-02-15T17:57:31.130Z,42.13
2023-02-15T18:00:16.672Z,41.17
2023-02-15T18:03:02.063Z,44.60
2023-02-15T18:05:47.422Z,45.15
2023-02-15T18:08:41.877Z,40.90
2023-02-15T18:11:28.868Z,38.17
2023-02-15T18:13:57.813Z,48.08
2023-02-15T18:16:29.155Z,40.42
2023-02-15T18:18:56.768Z,49.92
2023-02-15T18:21:26.042Z,42.13
2023-02-15T18:23:52.366Z,45.45
2023-02-15T18:26:22.870Z,38.10
2023-02-15T18:28:50.672Z,46.17
2023-02-15T18:31:19.063Z,43.00
2023-02-15T18:33:47.639Z,45.70
2023-02-15T18:36:20.821Z,40.47
2023-02-15T18:38:48.276Z,46.45
2023-02-15T18:41:19.597Z,50.70
2023-02-15T18:43:46.888Z,53.45
2023-02-15T18:46:13.532Z,56.43
2023-02-15T18:48:40.164Z,58.40
2023-02-15T18:51:17.604Z,54.25
2023-02-15T18:53:44.683Z,49.90
2023-02-15T18:56:19.777Z,48.15
2023-02-15T18:58:47.729Z,45.50
2023-02-15T19:01:16.996Z,45.50
2023-02-15T19:03:52.569Z,48.20
2023-02-15T19:06:25.877Z,49.40
2023-02-15T19:08:52.981Z,43.75
2023-02-15T19:11:23.138Z,42.63
2023-02-15T19:13:51.397Z,42.58
2023-02-15T19:16:33.727Z,41.70
2023-02-15T19:19:01.195Z,42.58
2023-02-15T19:21:30.137Z,44.22
2023-02-15T19:24:03.321Z,46.13
2023-02-15T19:26:44.466Z,44.70
2023-02-15T19:29:14.487Z,54.92
2023-02-15T19:31:41.374Z,44.00
2023-02-15T19:34:17.132Z,45.13
2023-02-15T19:36:45.651Z,44.90
2023-02-15T19:39:32.900Z,51.42
2023-02-15T19:41:59.296Z,47.75
2023-02-15T19:44:25.631Z,48.70
2023-02-15T19:46:51.954Z,42.53
2023-02-15T19:49:18.579Z,45.53
2023-02-15T19:51:45.372Z,40.38
2023-02-15T19:54:27.441Z,42.88
2023-02-15T19:56:54.169Z,41.50
2023-02-15T19:59:33.982Z,46.35
2023-02-15T20:02:00.371Z,44.40
2023-02-15T20:04:27.492Z,45.90
2023-02-15T20:06:56.919Z,46.35
2023-02-15T20:09:26.283Z,36.55
2023-02-15T20:11:53.547Z,46.00
2023-02-15T20:14:20.788Z,43.20
2023-02-15T20:16:47.337Z,41.22
2023-02-15T20:19:13.928Z,40.33
2023-02-15T20:21:42.424Z,47.30
2023-02-15T20:24:16.117Z,41.30
2023-02-15T20:26:42.572Z,41.20
2023-02-15T20:29:14.148Z,43.83
2023-02-15T20:31:41.456Z,45.90
2023-02-15T20:34:08.331Z,49.33
2023-02-15T20:36:35.319Z,45.17
2023-02-15T20:39:09.590Z,41.93
2023-02-15T20:41:35.981Z,39.22
2023-02-15T20:44:16.768Z,45.65
2023-02-15T20:46:43.463Z,42.95
2023-02-15T20:49:09.840Z,42.80
2023-02-15T20:51:36.284Z,45.03
2023-02-15T20:54:12.175Z,40.33
2023-02-15T20:56:38.587Z,46.50
2023-02-15T20:59:19.113Z,46.92
2023-02-15T21:01:45.539Z,43.17
2023-02-15T21:04:21.706Z,41.57
2023-02-15T21:06:48.283Z,39.85
2023-02-15T21:09:16.378Z,43.47
2023-02-15T21:11:44.185Z,43.85
2023-02-15T21:14:23.173Z,39.10
2023-02-15T21:16:50.752Z,42.73
2023-02-15T21:19:20.613Z,39.72
2023-02-15T21:21:49.013Z,45.28
2023-02-15T21:24:19.703Z,41.20
2023-02-15T21:26:46.888Z,40.97
2023-02-15T21:29:22.782Z,41.63
2023-02-15T21:31:49.743Z,39.53
2023-02-15T21:34:18.029Z,44.22
2023-02-15T21:36:45.768Z,41.08
2023-02-15T21:39:16.180Z,41.42
2023-02-15T21:42:04.207Z,36.87
2023-02-15T21:44:49.612Z,38.40
2023-02-15T21:47:36.354Z,41.60
2023-02-15T21:50:22.928Z,42.83
2023-02-15T21:52:49.281Z,40.28
2023-02-15T21:55:16.159Z,39.77
2023-02-15T21:57:42.493Z,38.85
2023-02-15T22:00:20.115Z,40.53
2023-02-15T22:02:48.245Z,46.60
2023-02-15T22:05:20.984Z,38.67
2023-02-15T22:07:47.908Z,36.47
2023-02-15T22:10:14.524Z,38.45
2023-02-15T22:12:43.111Z,41.80
2023-02-15T22:15:24.598Z,36.95
2023-02-15T22:17:52.873Z,40.20
2023-02-15T22:20:21.674Z,39.40
2023-02-15T22:22:49.307Z,37.53
2023-02-15T22:25:18.660Z,41.22
2023-02-15T22:27:46.674Z,44.25
2023-02-15T22:30:18.720Z,42.60
2023-02-15T22:32:45.085Z,42.73
2023-02-15T22:35:28.407Z,40.58
2023-02-15T22:37:55.656Z,41.15
2023-02-15T22:40:27.832Z,38.38
2023-02-15T22:42:55.217Z,40.40
2023-02-15T22:45:24.707Z,39.43
2023-02-15T22:47:54.317Z,41.20
2023-02-15T22:50:23.613Z,43.78
2023-02-15T22:52:50.888Z,44.67
2023-02-15T22:55:19.712Z,36.60
2023-02-15T22:57:52.654Z,37.53
2023-02-15T23:00:22.472Z,38.60
2023-02-15T23:02:48.876Z,37.72
2023-02-15T23:05:30.120Z,42.10
2023-02-15T23:07:57.027Z,40.35
2023-02-15T23:10:26.139Z,37.87
2023-02-15T23:13:16.580Z,47.10
2023-02-15T23:15:46.112Z,43.53
2023-02-15T23:18:17.086Z,42.17
2023-02-15T23:20:49.314Z,41.58
2023-02-15T23:23:15.977Z,39.73
2023-02-15T23:25:42.891Z,44.40
2023-02-15T23:28:19.650Z,43.83
2023-02-15T23:30:47.072Z,39.50
2023-02-15T23:33:13.536Z,42.25
2023-02-15T23:35:40.644Z,49.13
2023-02-15T23:38:21.541Z,39.53
2023-02-15T23:41:09.849Z,41.95
2023-02-15T23:43:36.858Z,43.45
2023-02-15T23:46:04.810Z,40.70
2023-02-15T23:48:36.851Z,44.70
2023-02-15T23:51:05.119Z,36.97
2023-02-15T23:53:32.513Z,39.47
2023-02-15T23:55:59.843Z,42.78
2023-02-15T23:58:34.420Z,41.17
